createdAt,value
2023-05-19T00:02:25.481Z,8.70
2023-05-19T00:04:52.421Z,8.70
2023-05-19T00:07:39.060Z,8.70
2023-05-19T00:10:20.833Z,8.60
2023-05-19T00:12:48.244Z,8.60
2023-05-19T00:15:25.522Z,8.60
2023-05-19T00:17:52.400Z,8.60
2023-05-19T00:20:37.800Z,8.50
2023-05-19T00:23:04.518Z,8.50
2023-05-19T00:25:40.607Z,8.40
2023-05-19T00:28:07.500Z,8.40
2023-05-19T00:30:35.608Z,8.40
2023-05-19T00:33:02.370Z,8.40
2023-05-19T00:35:41.337Z,8.30
2023-05-19T00:38:08.027Z,8.30
2023-05-19T00:40:36.352Z,8.30
2023-05-19T00:43:03.097Z,8.30
2023-05-19T00:45:29.924Z,8.20
2023-05-19T00:47:56.898Z,8.20
2023-05-19T00:50:24.075Z,8.20
2023-05-19T00:52:51.304Z,8.10
2023-05-19T00:57:58.849Z,8.00
2023-05-19T01:00:25.513Z,8.00
2023-05-19T01:03:10.134Z,8.00
2023-05-19T01:08:23.936Z,8.00
2023-05-19T01:10:50.781Z,8.00
2023-05-19T01:13:36.822Z,8.00
2023-05-19T01:16:31.369Z,7.90
2023-05-19T01:19:22.752Z,7.90
2023-05-19T01:22:23.304Z,7.90
2023-05-19T01:32:01.073Z,7.80
2023-05-19T01:37:12.774Z,7.70
2023-05-19T01:39:40.268Z,7.70
2023-05-19T01:42:07.725Z,7.70
2023-05-19T01:44:34.782Z,7.70
2023-05-19T01:47:02.375Z,7.70
2023-05-19T01:49:29.109Z,7.70
2023-05-19T01:51:56.566Z,7.70
2023-05-19T01:54:23.562Z,7.60
2023-05-19T01:57:03.761Z,7.60
2023-05-19T01:59:42.422Z,7.60
2023-05-19T02:02:39.222Z,7.60
2023-05-19T02:05:27.240Z,7.60
2023-05-19T02:08:39.607Z,7.60
2023-05-19T02:11:29.390Z,7.60
2023-05-19T02:16:45.452Z,7.50
2023-05-19T02:19:27.184Z,7.50
2023-05-19T02:21:54.036Z,7.50
2023-05-19T02:24:40.626Z,7.50
2023-05-19T02:27:20.601Z,7.40
2023-05-19T02:29:47.425Z,7.40
2023-05-19T02:32:28.643Z,7.40
2023-05-19T02:34:55.371Z,7.40
2023-05-19T02:37:40.043Z,7.40
2023-05-19T02:40:25.433Z,7.40
2023-05-19T02:43:07.768Z,7.40
2023-05-19T02:45:52.892Z,7.30
2023-05-19T02:48:34.434Z,7.30
2023-05-19T02:51:01.501Z,7.30
2023-05-19T02:53:40.478Z,7.30
2023-05-19T02:56:25.665Z,7.30
2023-05-19T02:59:11.321Z,7.30
2023-05-19T03:01:38.531Z,7.30
2023-05-19T03:04:24.482Z,7.30
2023-05-19T03:06:51.301Z,7.30
2023-05-19T03:13:06.806Z,7.30
2023-05-19T03:15:33.562Z,7.30
2023-05-19T03:18:09.427Z,7.30
2023-05-19T03:20:36.238Z,7.30
2023-05-19T03:23:02.978Z,7.30
2023-05-19T03:25:44.856Z,7.30
2023-05-19T03:28:26.751Z,7.30
2023-05-19T03:30:53.637Z,7.30
2023-05-19T03:33:41.267Z,7.20
2023-05-19T03:36:09.288Z,7.20
2023-05-19T03:38:54.209Z,7.20
2023-05-19T03:44:02.713Z,7.20
2023-05-19T03:46:47.895Z,7.10
2023-05-19T03:49:14.600Z,7.10
2023-05-19T03:51:56.865Z,7.10
2023-05-19T03:54:23.740Z,7.10
2023-05-19T03:56:50.501Z,7.10
2023-05-19T03:59:36.866Z,7.10
2023-05-19T04:02:03.977Z,7.20
2023-05-19T04:04:30.793Z,7.20
2023-05-19T04:07:16.058Z,7.20
2023-05-19T04:09:43.008Z,7.20
2023-05-19T04:12:25.129Z,7.20
2023-05-19T04:14:51.940Z,7.20
2023-05-19T04:17:43.017Z,7.20
2023-05-19T04:20:25.192Z,7.20
2023-05-19T04:23:08.512Z,7.20
2023-05-19T04:25:35.613Z,7.20
2023-05-19T04:30:42.989Z,7.30
2023-05-19T04:33:09.795Z,7.40
2023-05-19T04:35:54.966Z,7.40
2023-05-19T04:38:40.471Z,7.40
2023-05-19T04:41:07.221Z,7.40
2023-05-19T04:43:59.197Z,7.50
2023-05-19T04:49:07.470Z,7.60
2023-05-19T04:51:34.315Z,7.70
2023-05-19T04:54:16.461Z,7.70
2023-05-19T04:56:43.217Z,7.80
2023-05-19T04:59:10.458Z,7.80
2023-05-19T05:01:58.000Z,7.90
2023-05-19T05:04:24.832Z,8.00
2023-05-19T05:09:32.169Z,8.00
2023-05-19T05:12:01.531Z,8.10
2023-05-19T05:14:29.125Z,8.20
2023-05-19T05:17:02.016Z,8.20
2023-05-19T05:19:29.028Z,8.30
2023-05-19T05:21:56.145Z,8.30
2023-05-19T05:24:24.648Z,8.30
2023-05-19T05:26:51.796Z,8.40
2023-05-19T05:29:18.609Z,8.40
2023-05-19T05:31:45.396Z,8.40
2023-05-19T05:34:12.202Z,8.60
2023-05-19T05:36:38.985Z,8.70
2023-05-19T05:41:52.299Z,8.80
2023-05-19T05:44:35.230Z,8.90
2023-05-19T05:47:03.043Z,8.90
2023-05-19T05:49:30.151Z,9.00
2023-05-19T05:52:15.282Z,9.10
2023-05-19T05:55:01.249Z,9.20
2023-05-19T05:57:28.066Z,9.30
2023-05-19T06:00:18.218Z,9.30
2023-05-19T06:03:03.884Z,9.50
2023-05-19T06:05:52.231Z,9.60
2023-05-19T06:08:18.999Z,9.80
2023-05-19T06:11:39.495Z,9.70
2023-05-19T06:14:11.993Z,9.80
2023-05-19T06:34:39.815Z,11.30
2023-05-19T06:40:38.864Z,11.50
2023-05-19T06:55:00.248Z,13.70
2023-05-19T07:04:15.234Z,15.30
2023-05-19T07:13:31.052Z,13.60
2023-05-19T07:16:13.236Z,13.30
2023-05-19T07:18:45.648Z,13.30
2023-05-19T07:21:12.670Z,13.30
2023-05-19T07:24:11.094Z,13.40
2023-05-19T08:36:46.845Z,15.50
2023-05-19T08:39:13.546Z,15.40
2023-05-19T08:52:52.821Z,15.50
2023-05-19T09:14:06.618Z,15.90
2023-05-19T09:16:47.069Z,16.00
2023-05-19T09:35:58.376Z,17.10
2023-05-19T09:53:35.035Z,16.70
2023-05-19T12:03:12.644Z,18.20
2023-05-19T14:50:45.128Z,18.60
2023-05-19T15:11:41.377Z,18.10
2023-05-19T15:20:45.835Z,17.90
2023-05-19T20:02:11.945Z,14.90
2023-05-19T20:04:28.422Z,14.80
2023-05-19T20:07:29.157Z,14.80
2023-05-19T20:35:23.108Z,14.40
2023-05-19T20:38:14.468Z,14.40
2023-05-19T20:40:54.222Z,14.40
2023-05-19T20:43:38.828Z,14.30
2023-05-19T20:46:23.386Z,14.30
2023-05-19T20:48:50.095Z,14.20
2023-05-19T20:51:21.803Z,14.20
2023-05-19T20:53:48.865Z,14.10
2023-05-19T20:56:19.538Z,14.10
2023-05-19T20:58:55.347Z,14.10
2023-05-19T21:01:22.049Z,14.00
2023-05-19T21:03:51.016Z,14.00
2023-05-19T21:06:39.060Z,14.00
2023-05-19T21:09:14.540Z,14.00
2023-05-19T21:11:56.671Z,13.90
2023-05-19T21:14:34.945Z,13.90
2023-05-19T21:17:04.481Z,13.80
2023-05-19T21:19:52.064Z,13.80
2023-05-19T21:22:20.173Z,13.70
2023-05-19T21:24:57.372Z,13.70
2023-05-19T21:30:05.184Z,13.60
2023-05-19T21:32:34.413Z,13.60
2023-05-19T21:35:17.683Z,13.60
2023-05-19T21:38:11.949Z,13.60
2023-05-19T21:40:47.506Z,13.60
2023-05-19T21:43:26.697Z,13.60
2023-05-19T21:45:59.730Z,13.60
2023-05-19T21:48:48.973Z,13.60
2023-05-19T21:51:35.666Z,13.60
2023-05-19T21:54:17.735Z,13.50
2023-05-19T21:57:02.057Z,13.50
2023-05-19T21:59:43.582Z,13.50
2023-05-19T22:02:19.424Z,13.40
2023-05-19T22:04:47.676Z,13.40
2023-05-19T22:07:20.698Z,13.40
2023-05-19T22:09:48.988Z,13.40
2023-05-19T22:12:18.665Z,13.40
2023-05-19T22:15:04.249Z,13.30
2023-05-19T22:17:48.493Z,13.30
2023-05-19T22:20:26.715Z,13.30
2023-05-19T22:23:01.768Z,13.20
2023-05-19T22:25:45.868Z,13.20
2023-05-19T22:28:24.372Z,13.20
2023-05-19T22:31:04.281Z,13.10
2023-05-19T22:33:49.025Z,13.10
2023-05-19T22:36:31.141Z,13.10
2023-05-19T22:39:06.788Z,13.00
2023-05-19T22:41:36.921Z,13.00
2023-05-19T22:44:22.132Z,12.90
2023-05-19T22:46:49.101Z,12.90
2023-05-19T22:49:22.994Z,12.90
2023-05-19T22:52:01.940Z,12.80
2023-05-19T22:54:28.846Z,12.80
2023-05-19T22:56:58.692Z,12.80
2023-05-19T22:59:41.826Z,12.70
2023-05-19T23:02:20.888Z,12.70
2023-05-19T23:04:47.701Z,12.60
2023-05-19T23:07:27.780Z,12.60
2023-05-19T23:10:12.569Z,12.60
2023-05-19T23:12:39.246Z,12.50
2023-05-19T23:15:07.758Z,12.50
2023-05-19T23:17:34.663Z,12.40
2023-05-19T23:20:11.203Z,12.40
2023-05-19T23:22:49.514Z,12.30
2023-05-19T23:25:16.363Z,12.30
2023-05-19T23:27:51.737Z,12.30
2023-05-19T23:30:38.993Z,12.20
2023-05-19T23:33:08.644Z,12.20
2023-05-19T23:35:36.000Z,12.20
2023-05-19T23:41:08.906Z,12.10
2023-05-19T23:46:41.223Z,12.00
2023-05-19T23:49:20.542Z,11.90
2023-05-19T23:52:04.802Z,11.90
2023-05-19T23:54:31.687Z,11.80
2023-05-19T23:56:58.510Z,11.80
2023-05-19T23:59:44.114Z,11.70
